Terminal Aerodrome Forecast
Issued by NWS

Home | Current Version | Previous Version | Text Only | Print | Product List | Glossary On
Versions: 1 2 3 4 5 6 7 8 9 10 11 12 13 14 15
000
FTUS45 KRIW 070528
TAFCOD
TAF
KCOD 070528Z 0706/0806 16006KT P6SM BKN120
     FM071100 VRB04KT P6SM FEW080
     FM071800 04007KT P6SM SCT050 BKN150
     FM080000 35007KT P6SM VCSH BKN070
      AMD LTD TO CLD VIS AND WIND=

USA.gov is the U.S. government's official web portal to all federal, state and local government web resources and services.